»·PEaware :: SWA2509 KLAS-KSLC

SWA2509 :: KLAS-KSLC

FLIGHT INFORMATION

Flight Status: Arrived
Operator:
Southwest Airlines
More flights by this operator :: More flights under this callsign
Pilot: Ben F. (2808)
Aircraft: BOEING 737-800
(B738)
More flights by this aircraft type
Origin: KLAS McCarran Intl
United States
Destination: KSLC Salt Lake City Intl
United States
More flights between these airports :: More routes between these airports
Route: STAAV8 MLF DELTA5
File this flight plan on PilotEdge
Remarks:
Altitude:
(Current/Filed)
33,000ft
Speed:
(Current/Filed)
455kts
Departed: 10-Nov-19 09:30 AM
Arrived: 10-Nov-19 10:38 AM
Distance/Time
Traveled:
319nm/1:07
Distance/Time
To Go:
Arrived

Flight Plot

Page will automatically refresh every two minutes.

Flight plan parsing failed; only flown route is shown


Map Options




Map Legend


Flown Route
Filed Route
Departure Airport
Arrival Airport
Navaid (VOR, NDB)
Fix

Horizontal Profiles

Position Reports

Time Latitude Longitude Heading Altitude Ground
Speed
10-Nov-19 08:59 36.079662 -115.146233 355 2189ft 0kts
10-Nov-19 09:00 36.079662 -115.146233 355 2189ft 0kts
10-Nov-19 09:01 36.079662 -115.146233 355 2189ft 0kts
10-Nov-19 09:02 36.079662 -115.146233 355 2189ft 0kts
10-Nov-19 09:03 36.079662 -115.146233 355 2189ft 0kts
10-Nov-19 09:04 36.079662 -115.146233 355 2189ft 0kts
10-Nov-19 09:05 36.079662 -115.146233 355 2189ft 0kts
10-Nov-19 09:06 36.079662 -115.146233 355 2189ft 0kts
10-Nov-19 09:07 36.079662 -115.146233 355 2189ft 0kts
10-Nov-19 09:08 36.079662 -115.146233 355 2189ft 0kts
10-Nov-19 09:09 36.079662 -115.146233 355 2189ft 0kts
10-Nov-19 09:10 36.079662 -115.146233 355 2189ft 0kts
10-Nov-19 09:11 36.079662 -115.146233 355 2189ft 0kts
10-Nov-19 09:12 36.079662 -115.146233 355 2189ft 0kts
10-Nov-19 09:13 36.079662 -115.146233 355 2189ft 0kts
10-Nov-19 09:14 36.079662 -115.146233 355 2189ft 0kts
10-Nov-19 09:15 36.079662 -115.146233 355 2189ft 0kts
10-Nov-19 09:16 36.079662 -115.146233 355 2189ft 0kts
10-Nov-19 09:17 36.079662 -115.146233 355 2189ft 0kts
10-Nov-19 09:18 36.079662 -115.146233 355 2189ft 0kts
10-Nov-19 09:19 36.079251 -115.146300 34 2189ft 2kts
10-Nov-19 09:20 36.079103 -115.146532 77 2189ft 0kts
10-Nov-19 09:21 36.079103 -115.146532 77 2189ft 0kts
10-Nov-19 09:22 36.078963 -115.144895 165 2189ft 7kts
10-Nov-19 09:23 36.078283 -115.141525 89 2189ft 24kts
10-Nov-19 09:24 36.078277 -115.133996 90 2189ft 21kts
10-Nov-19 09:25 36.078277 -115.126212 87 2189ft 22kts
10-Nov-19 09:26 36.077414 -115.121385 145 2189ft 0kts
10-Nov-19 09:27 36.077411 -115.121382 146 2189ft 0kts
10-Nov-19 09:28 36.076444 -115.121586 266 2189ft 8kts
10-Nov-19 09:29 36.076613 -115.158651 271 2912ft 181kts
10-Nov-19 09:30 36.077037 -115.226379 269 5366ft 240kts
10-Nov-19 09:31 36.106815 -115.293175 339 8875ft 250kts
10-Nov-19 09:32 36.170353 -115.272352 51 12211ft 262kts
10-Nov-19 09:33 36.194820 -115.181601 80 14443ft 312kts
10-Nov-19 09:34 36.198054 -115.060190 88 15805ft 382kts
10-Nov-19 09:35 36.199119 -114.925924 88 18408ft 397kts
10-Nov-19 09:36 36.213054 -114.789175 59 20631ft 413kts
10-Nov-19 09:37 36.297247 -114.689769 36 22606ft 428kts
10-Nov-19 09:38 36.393350 -114.598507 36 24348ft 443kts
10-Nov-19 09:39 36.492641 -114.504342 36 26077ft 453kts
10-Nov-19 09:40 36.596665 -114.413040 30 27613ft 462kts
10-Nov-19 09:41 36.707313 -114.328791 30 29026ft 470kts
10-Nov-19 09:42 36.817649 -114.243079 31 30825ft 464kts
10-Nov-19 09:43 36.926732 -114.158520 30 32584ft 458kts
10-Nov-19 09:44 37.034799 -114.074122 30 33255ft 458kts
10-Nov-19 09:45 37.142082 -113.989950 30 33256ft 454kts
10-Nov-19 09:46 37.249753 -113.905171 30 33258ft 455kts
10-Nov-19 09:47 37.356845 -113.820558 30 33259ft 454kts
10-Nov-19 09:48 37.463604 -113.735914 30 33261ft 454kts
10-Nov-19 09:49 37.570430 -113.650932 30 33263ft 453kts
10-Nov-19 09:50 37.676746 -113.566063 30 33269ft 453kts
10-Nov-19 09:51 37.783472 -113.480571 30 33272ft 453kts
10-Nov-19 09:52 37.889768 -113.395128 30 33273ft 453kts
10-Nov-19 09:53 37.993079 -113.311799 31 33275ft 454kts
10-Nov-19 09:54 38.099510 -113.225772 30 33280ft 454kts
10-Nov-19 09:55 38.206240 -113.139204 30 33285ft 455kts
10-Nov-19 09:56 38.313156 -113.051857 30 33290ft 456kts
10-Nov-19 09:57 38.425495 -112.978124 20 33290ft 454kts
10-Nov-19 09:58 38.542011 -112.916235 20 33291ft 454kts
10-Nov-19 09:59 38.658893 -112.853571 20 33293ft 455kts
10-Nov-19 10:00 38.775464 -112.791261 20 33295ft 455kts
10-Nov-19 10:01 38.892314 -112.728324 20 33296ft 455kts
10-Nov-19 10:02 39.009296 -112.665078 19 33293ft 455kts
10-Nov-19 10:03 39.126198 -112.601736 20 33292ft 456kts
10-Nov-19 10:04 39.242680 -112.538127 20 31806ft 455kts
10-Nov-19 10:05 39.360018 -112.485859 10 29600ft 438kts
10-Nov-19 10:06 39.476568 -112.447650 11 27545ft 425kts
10-Nov-19 10:07 39.589381 -112.410099 10 25544ft 413kts
10-Nov-19 10:08 39.699131 -112.373603 10 23573ft 402kts
10-Nov-19 10:09 39.806245 -112.337910 10 21630ft 392kts
10-Nov-19 10:10 39.910383 -112.302858 10 19721ft 382kts
10-Nov-19 10:11 40.012331 -112.268445 11 17674ft 376kts
10-Nov-19 10:12 40.110796 -112.235234 11 16232ft 362kts
10-Nov-19 10:13 40.206066 -112.202864 11 14846ft 338kts
10-Nov-19 10:14 40.292485 -112.173431 11 14024ft 304kts
10-Nov-19 10:15 40.374318 -112.145593 11 13623ft 305kts
10-Nov-19 10:16 40.456259 -112.117569 11 13148ft 303kts
10-Nov-19 10:17 40.538375 -112.089621 11 12271ft 308kts
10-Nov-19 10:18 40.621302 -112.078806 359 11182ft 294kts
10-Nov-19 10:19 40.701164 -112.085939 352 11013ft 290kts
10-Nov-19 10:20 40.780094 -112.095283 352 10993ft 266kts
10-Nov-19 10:21 40.849293 -112.103492 352 10783ft 247kts
10-Nov-19 10:22 40.917614 -112.111592 353 9603ft 244kts
10-Nov-19 10:23 40.962602 -112.064793 80 8306ft 243kts
10-Nov-19 10:24 40.937879 -111.991137 158 6979ft 240kts
10-Nov-19 10:25 40.873200 -111.984489 175 5713ft 224kts
10-Nov-19 10:26 40.815462 -111.978001 175 4405ft 188kts
10-Nov-19 10:27 40.762975 -111.972368 173 5145ft 179kts
10-Nov-19 10:28 40.726015 -111.996921 236 5969ft 158kts
10-Nov-19 10:29 40.747697 -112.061394 307 7741ft 229kts
10-Nov-19 10:30 40.802549 -112.092390 352 8007ft 224kts
10-Nov-19 10:31 40.863896 -112.102440 352 7997ft 218kts
10-Nov-19 10:33 40.923159 -112.097484 52 6757ft 215kts
10-Nov-19 10:34 40.925376 -112.024430 124 5997ft 205kts
10-Nov-19 10:35 40.881922 -111.986925 168 5981ft 171kts
10-Nov-19 10:36 40.834680 -111.979962 175 4746ft 160kts
10-Nov-19 10:37 40.795564 -111.975514 175 4235ft 78kts
10-Nov-19 10:38 40.790397 -111.976434 211 4235ft 0kts
10-Nov-19 10:39 40.789516 -111.977190 232 4235ft 5kts
10-Nov-19 10:40 40.789103 -111.978069 238 4235ft 0kts
10-Nov-19 10:41 40.789115 -111.978041 238 4235ft 1kts
10-Nov-19 10:42 40.789125 -111.978016 238 4235ft 0kts
10-Nov-19 10:43 40.789124 -111.978018 238 4235ft 0kts
10-Nov-19 10:44 40.789124 -111.978018 238 4235ft 0kts
10-Nov-19 10:45 40.789124 -111.978018 238 4235ft 0kts
10-Nov-19 10:46 40.789124 -111.978018 238 4235ft 0kts
10-Nov-19 10:47 40.789124 -111.978018 238 4235ft 0kts
10-Nov-19 10:48 40.789124 -111.978018 238 4235ft 0kts
10-Nov-19 10:49 40.789124 -111.978018 238 4235ft 0kts
10-Nov-19 10:50 40.789124 -111.978018 238 4235ft 0kts
10-Nov-19 10:51 40.789124 -111.978018 238 4235ft 0kts
10-Nov-19 10:52 40.789124 -111.978018 238 4235ft 0kts

Navigation Log

Ident Type
Flight plan parsing failed, navigation log unavailable